AIQ728 VTBS-VECC
Flight info
| Callsign | AIQ728 |
|---|---|
| Flight time | 2h 27m |
| Altitude | 36000 |
| Route | TARED1J TARED P646 DOPID DOPID2A |
| Aircraft | A320/M-SDE3FGHIRWY/LB1 |
Departure
| Time | 2026-04-23 15:37 |
|---|---|
| Airport | Suvarnabhumi Airport (VTBS) |
Arrival
| Time | 2026-04-23 18:04 |
|---|---|
| Airport | Netaji Subhash Chandra Bose International Airport (VECC) |
| Time | Latitude | Longitude | Altitude | Speed | Heading |
|---|---|---|---|---|---|
| 2026-04-23 15:06 | 13.69377 | 100.75566 | 13 ft | 0 kts | 284° |
| 2026-04-23 15:27 | 13.69374 | 100.75576 | 14 ft | 2 kts | 282° |
| 2026-04-23 15:28 | 13.69370 | 100.75592 | 14 ft | 2 kts | 284° |
| 2026-04-23 15:28 | 13.69366 | 100.75609 | 16 ft | 2 kts | 284° |
| 2026-04-23 15:28 | 13.69362 | 100.75625 | 14 ft | 2 kts | 284° |
| 2026-04-23 15:28 | 13.69358 | 100.75641 | 13 ft | 2 kts | 284° |
| 2026-04-23 15:29 | 13.69355 | 100.75658 | 14 ft | 2 kts | 218° |
| 2026-04-23 15:29 | 13.69370 | 100.75665 | 16 ft | 2 kts | 195° |
| 2026-04-23 15:29 | 13.69382 | 100.75668 | 13 ft | 1 kts | 194° |
| 2026-04-23 15:32 | 13.69357 | 100.75661 | 14 ft | 7 kts | 194° |
| 2026-04-23 15:32 | 13.69290 | 100.75644 | 13 ft | 13 kts | 194° |
| 2026-04-23 15:32 | 13.69198 | 100.75625 | 13 ft | 14 kts | 172° |
| 2026-04-23 15:32 | 13.69145 | 100.75709 | 13 ft | 17 kts | 104° |
| 2026-04-23 15:33 | 13.69119 | 100.75809 | 13 ft | 17 kts | 104° |
| 2026-04-23 15:33 | 13.69095 | 100.75906 | 13 ft | 12 kts | 104° |
| 2026-04-23 15:33 | 13.69082 | 100.75957 | 13 ft | 0 kts | 104° |
| 2026-04-23 15:34 | 13.69081 | 100.75961 | 13 ft | 3 kts | 104° |
| 2026-04-23 15:34 | 13.69071 | 100.76002 | 13 ft | 9 kts | 104° |
| 2026-04-23 15:35 | 13.69047 | 100.76066 | 14 ft | 8 kts | 147° |
| 2026-04-23 15:35 | 13.69017 | 100.76064 | 13 ft | 0 kts | 194° |
| 2026-04-23 15:35 | 13.69015 | 100.76063 | 13 ft | 2 kts | 194° |
| 2026-04-23 15:36 | 13.68839 | 100.76017 | 15 ft | 59 kts | 194° |
| 2026-04-23 15:36 | 13.68234 | 100.75859 | 13 ft | 117 kts | 194° |
| 2026-04-23 15:36 | 13.67286 | 100.75610 | 15 ft | 161 kts | 194° |
| 2026-04-23 15:36 | 13.66168 | 100.75316 | 567 ft | 164 kts | 192° |
| 2026-04-23 15:37 | 13.65040 | 100.75177 | 1189 ft | 164 kts | 180° |
| 2026-04-23 15:37 | 13.63845 | 100.75197 | 1530 ft | 181 kts | 180° |
| 2026-04-23 15:37 | 13.62505 | 100.75210 | 1753 ft | 202 kts | 180° |
| 2026-04-23 15:37 | 13.61068 | 100.75225 | 2205 ft | 213 kts | 180° |
| 2026-04-23 15:38 | 13.59542 | 100.75388 | 2642 ft | 232 kts | 173° |
| 2026-04-23 15:38 | 13.57897 | 100.75777 | 3034 ft | 251 kts | 166° |
| 2026-04-23 15:38 | 13.56198 | 100.76303 | 3675 ft | 258 kts | 164° |
| 2026-04-23 15:38 | 13.54469 | 100.76862 | 4393 ft | 263 kts | 163° |
| 2026-04-23 15:39 | 13.52705 | 100.77425 | 5112 ft | 267 kts | 163° |
| 2026-04-23 15:39 | 13.50911 | 100.77982 | 5787 ft | 272 kts | 163° |
| 2026-04-23 15:39 | 13.49062 | 100.78467 | 6489 ft | 276 kts | 172° |
| 2026-04-23 15:39 | 13.47129 | 100.78447 | 7128 ft | 281 kts | 189° |
| 2026-04-23 15:40 | 13.45268 | 100.77772 | 7753 ft | 288 kts | 211° |
| 2026-04-23 15:40 | 13.43800 | 100.76408 | 8376 ft | 293 kts | 235° |
| 2026-04-23 15:40 | 13.42996 | 100.74488 | 9024 ft | 296 kts | 261° |
| 2026-04-23 15:40 | 13.43066 | 100.72370 | 9667 ft | 299 kts | 287° |
| 2026-04-23 15:41 | 13.44008 | 100.70471 | 10216 ft | 303 kts | 309° |
| 2026-04-23 15:41 | 13.45414 | 100.68754 | 10352 ft | 325 kts | 312° |
| 2026-04-23 15:41 | 13.46962 | 100.66945 | 10477 ft | 346 kts | 312° |
| 2026-04-23 15:41 | 13.48593 | 100.65064 | 10846 ft | 356 kts | 313° |
| 2026-04-23 15:42 | 13.50231 | 100.63174 | 11384 ft | 361 kts | 312° |
| 2026-04-23 15:42 | 13.51903 | 100.61230 | 11962 ft | 364 kts | 311° |
| 2026-04-23 15:42 | 13.53582 | 100.59266 | 12524 ft | 367 kts | 311° |
| 2026-04-23 15:42 | 13.55271 | 100.57285 | 13082 ft | 370 kts | 311° |
| 2026-04-23 15:43 | 13.56976 | 100.55280 | 13609 ft | 374 kts | 311° |
| 2026-04-23 15:43 | 13.58693 | 100.53257 | 14082 ft | 377 kts | 311° |
| 2026-04-23 15:43 | 13.60423 | 100.51218 | 14583 ft | 379 kts | 311° |
| 2026-04-23 15:43 | 13.62139 | 100.49196 | 15067 ft | 381 kts | 311° |
| 2026-04-23 15:44 | 13.63895 | 100.47130 | 15551 ft | 383 kts | 312° |
| 2026-04-23 15:44 | 13.65651 | 100.45064 | 16082 ft | 384 kts | 312° |
| 2026-04-23 15:44 | 13.67414 | 100.42989 | 16573 ft | 386 kts | 312° |
| 2026-04-23 15:44 | 13.69187 | 100.40905 | 17052 ft | 387 kts | 312° |
| 2026-04-23 15:45 | 13.70966 | 100.38814 | 17495 ft | 390 kts | 312° |
| 2026-04-23 15:45 | 13.72764 | 100.36700 | 17909 ft | 393 kts | 312° |
| 2026-04-23 15:45 | 13.74548 | 100.34595 | 18315 ft | 395 kts | 312° |
| 2026-04-23 15:45 | 13.76360 | 100.32458 | 18694 ft | 397 kts | 312° |
| 2026-04-23 15:46 | 13.78181 | 100.30309 | 19064 ft | 399 kts | 312° |
| 2026-04-23 15:46 | 13.80012 | 100.28148 | 19427 ft | 401 kts | 312° |
| 2026-04-23 15:46 | 13.81849 | 100.25982 | 19778 ft | 403 kts | 312° |
| 2026-04-23 15:46 | 13.83696 | 100.23802 | 20139 ft | 405 kts | 312° |
| 2026-04-23 15:47 | 13.85553 | 100.21607 | 20499 ft | 407 kts | 312° |
| 2026-04-23 15:47 | 13.87421 | 100.19400 | 20839 ft | 410 kts | 312° |
| 2026-04-23 15:47 | 13.89280 | 100.17206 | 21161 ft | 412 kts | 311° |
| 2026-04-23 15:47 | 13.91178 | 100.14969 | 21457 ft | 416 kts | 311° |
| 2026-04-23 15:48 | 13.93084 | 100.12719 | 21792 ft | 418 kts | 311° |
| 2026-04-23 15:48 | 13.94998 | 100.10459 | 22110 ft | 420 kts | 311° |
| 2026-04-23 15:48 | 13.96927 | 100.08177 | 22430 ft | 423 kts | 311° |
| 2026-04-23 15:48 | 13.98858 | 100.05891 | 22792 ft | 424 kts | 311° |
| 2026-04-23 15:49 | 14.00802 | 100.03592 | 23115 ft | 426 kts | 311° |
| 2026-04-23 15:49 | 14.02750 | 100.01290 | 23465 ft | 427 kts | 311° |
| 2026-04-23 15:49 | 14.04708 | 99.98975 | 23703 ft | 430 kts | 311° |
| 2026-04-23 15:49 | 14.06672 | 99.96649 | 23997 ft | 430 kts | 311° |
| 2026-04-23 15:50 | 14.08638 | 99.94321 | 24267 ft | 432 kts | 311° |
| 2026-04-23 15:50 | 14.10621 | 99.91974 | 24520 ft | 435 kts | 311° |
| 2026-04-23 15:50 | 14.12609 | 99.89621 | 24764 ft | 436 kts | 311° |
| 2026-04-23 15:50 | 14.14579 | 99.87283 | 25020 ft | 438 kts | 311° |
| 2026-04-23 15:51 | 14.16581 | 99.84904 | 25275 ft | 440 kts | 311° |
| 2026-04-23 15:51 | 14.18589 | 99.82521 | 25538 ft | 441 kts | 311° |
| 2026-04-23 15:51 | 14.20605 | 99.80128 | 25808 ft | 442 kts | 311° |
| 2026-04-23 15:51 | 14.22627 | 99.77730 | 26063 ft | 444 kts | 311° |
| 2026-04-23 15:52 | 14.24658 | 99.75321 | 26320 ft | 445 kts | 311° |
| 2026-04-23 15:52 | 14.26692 | 99.72909 | 26585 ft | 446 kts | 311° |
| 2026-04-23 15:52 | 14.28707 | 99.70516 | 26840 ft | 448 kts | 311° |
| 2026-04-23 15:52 | 14.30750 | 99.68086 | 27104 ft | 449 kts | 311° |
| 2026-04-23 15:53 | 14.32803 | 99.65648 | 27353 ft | 450 kts | 311° |
| 2026-04-23 15:53 | 14.34867 | 99.63196 | 27602 ft | 452 kts | 311° |
| 2026-04-23 15:53 | 14.36932 | 99.60740 | 27847 ft | 453 kts | 311° |
| 2026-04-23 15:53 | 14.39002 | 99.58275 | 28091 ft | 454 kts | 311° |
| 2026-04-23 15:54 | 14.41073 | 99.55808 | 28323 ft | 455 kts | 311° |
| 2026-04-23 15:54 | 14.43125 | 99.53305 | 28567 ft | 457 kts | 307° |
| 2026-04-23 15:54 | 14.44851 | 99.50553 | 28781 ft | 458 kts | 298° |
| 2026-04-23 15:54 | 14.46328 | 99.47629 | 28990 ft | 460 kts | 298° |
| 2026-04-23 15:55 | 14.47803 | 99.44701 | 29227 ft | 460 kts | 298° |
| 2026-04-23 15:55 | 14.49266 | 99.41802 | 29456 ft | 461 kts | 298° |
| 2026-04-23 15:55 | 14.50751 | 99.38856 | 29668 ft | 463 kts | 298° |
| 2026-04-23 15:55 | 14.52239 | 99.35907 | 29911 ft | 463 kts | 298° |
| 2026-04-23 15:56 | 14.53729 | 99.32953 | 30135 ft | 463 kts | 298° |
| 2026-04-23 15:56 | 14.55218 | 99.30000 | 30408 ft | 462 kts | 298° |
| 2026-04-23 15:56 | 14.56698 | 99.27066 | 30716 ft | 460 kts | 298° |
| 2026-04-23 15:56 | 14.58175 | 99.24137 | 30959 ft | 460 kts | 297° |
| 2026-04-23 15:57 | 14.59656 | 99.21202 | 31211 ft | 459 kts | 298° |
| 2026-04-23 15:57 | 14.61110 | 99.18316 | 31465 ft | 459 kts | 297° |
| 2026-04-23 15:57 | 14.62582 | 99.15390 | 31694 ft | 459 kts | 297° |
| 2026-04-23 15:57 | 14.64052 | 99.12462 | 31953 ft | 458 kts | 297° |
| 2026-04-23 15:58 | 14.65515 | 99.09545 | 32247 ft | 457 kts | 297° |
| 2026-04-23 15:58 | 14.66978 | 99.06628 | 32457 ft | 458 kts | 297° |
| 2026-04-23 15:58 | 14.68447 | 99.03700 | 32702 ft | 458 kts | 297° |
| 2026-04-23 15:58 | 14.69912 | 99.00786 | 32956 ft | 457 kts | 297° |
| 2026-04-23 15:59 | 14.71381 | 98.97862 | 33216 ft | 457 kts | 297° |
| 2026-04-23 15:59 | 14.72842 | 98.94951 | 33484 ft | 456 kts | 297° |
| 2026-04-23 15:59 | 14.74282 | 98.92076 | 33756 ft | 455 kts | 297° |
| 2026-04-23 15:59 | 14.75738 | 98.89168 | 34008 ft | 454 kts | 297° |
| 2026-04-23 16:00 | 14.77190 | 98.86271 | 34251 ft | 453 kts | 297° |
| 2026-04-23 16:00 | 14.78638 | 98.83386 | 34530 ft | 451 kts | 297° |
| 2026-04-23 16:00 | 14.80081 | 98.80504 | 34755 ft | 450 kts | 296° |
| 2026-04-23 16:00 | 14.81520 | 98.77623 | 34947 ft | 450 kts | 296° |
| 2026-04-23 16:01 | 14.82938 | 98.74780 | 35123 ft | 451 kts | 297° |
| 2026-04-23 16:01 | 14.84379 | 98.71896 | 35289 ft | 451 kts | 296° |
| 2026-04-23 16:01 | 14.85819 | 98.69016 | 35468 ft | 451 kts | 296° |
| 2026-04-23 16:01 | 14.87261 | 98.66139 | 35641 ft | 451 kts | 296° |
| 2026-04-23 16:02 | 14.88705 | 98.63261 | 35811 ft | 451 kts | 296° |
| 2026-04-23 16:02 | 14.91597 | 98.57480 | 35897 ft | 452 kts | 296° |
| 2026-04-23 16:03 | 14.94473 | 98.51707 | 35894 ft | 452 kts | 296° |
| 2026-04-23 16:03 | 14.97353 | 98.45923 | 35895 ft | 452 kts | 296° |
| 2026-04-23 16:04 | 15.00215 | 98.40177 | 35894 ft | 452 kts | 296° |
| 2026-04-23 16:04 | 15.03087 | 98.34398 | 35891 ft | 452 kts | 296° |
| 2026-04-23 16:05 | 15.05481 | 98.29599 | 35890 ft | 451 kts | 296° |
| 2026-04-23 16:05 | 15.08847 | 98.22842 | 35896 ft | 451 kts | 296° |
| 2026-04-23 16:06 | 15.11680 | 98.17094 | 35889 ft | 451 kts | 296° |
| 2026-04-23 16:06 | 15.14500 | 98.11276 | 35891 ft | 451 kts | 295° |
| 2026-04-23 16:07 | 15.17312 | 98.05468 | 35891 ft | 451 kts | 295° |
| 2026-04-23 16:07 | 15.20112 | 97.99697 | 35883 ft | 451 kts | 295° |
| 2026-04-23 16:08 | 15.22923 | 97.93891 | 35881 ft | 451 kts | 295° |
| 2026-04-23 16:08 | 15.25738 | 97.88083 | 35869 ft | 450 kts | 295° |
| 2026-04-23 16:09 | 15.28553 | 97.82279 | 35870 ft | 450 kts | 295° |
| 2026-04-23 16:09 | 15.31364 | 97.76472 | 35869 ft | 450 kts | 295° |
| 2026-04-23 16:10 | 15.34165 | 97.70669 | 35866 ft | 450 kts | 295° |
| 2026-04-23 16:10 | 15.36965 | 97.64859 | 35865 ft | 450 kts | 295° |
| 2026-04-23 16:11 | 15.39750 | 97.59091 | 35868 ft | 450 kts | 295° |
| 2026-04-23 16:11 | 15.42552 | 97.53281 | 35858 ft | 450 kts | 295° |
| 2026-04-23 16:12 | 15.44889 | 97.48453 | 35859 ft | 450 kts | 295° |
| 2026-04-23 16:12 | 15.47801 | 97.42689 | 35859 ft | 451 kts | 296° |
| 2026-04-23 16:13 | 15.51250 | 97.36018 | 35859 ft | 451 kts | 296° |
| 2026-04-23 16:13 | 15.55165 | 97.28368 | 35859 ft | 450 kts | 296° |
| 2026-04-23 16:14 | 15.58091 | 97.22622 | 35860 ft | 450 kts | 296° |
| 2026-04-23 16:14 | 15.61005 | 97.16868 | 35860 ft | 450 kts | 296° |
| 2026-04-23 16:15 | 15.63903 | 97.11155 | 35862 ft | 449 kts | 296° |
| 2026-04-23 16:15 | 15.66817 | 97.05413 | 35861 ft | 449 kts | 296° |
| 2026-04-23 16:16 | 15.69733 | 96.99670 | 35860 ft | 449 kts | 296° |
| 2026-04-23 16:16 | 15.72647 | 96.93932 | 35858 ft | 449 kts | 296° |
| 2026-04-23 16:17 | 15.75561 | 96.88192 | 35856 ft | 449 kts | 296° |
| 2026-04-23 16:17 | 15.78472 | 96.82445 | 35852 ft | 449 kts | 296° |
| 2026-04-23 16:18 | 15.81356 | 96.76729 | 35850 ft | 449 kts | 296° |
| 2026-04-23 16:18 | 15.84252 | 96.70979 | 35846 ft | 450 kts | 296° |
| 2026-04-23 16:19 | 15.87157 | 96.65224 | 35845 ft | 450 kts | 296° |
| 2026-04-23 16:19 | 15.90062 | 96.59464 | 35853 ft | 449 kts | 295° |
| 2026-04-23 16:20 | 15.92960 | 96.53712 | 35855 ft | 449 kts | 295° |
| 2026-04-23 16:20 | 15.95834 | 96.47998 | 35856 ft | 448 kts | 295° |
| 2026-04-23 16:21 | 15.98722 | 96.42251 | 35851 ft | 448 kts | 295° |
| 2026-04-23 16:21 | 16.01612 | 96.36506 | 35847 ft | 447 kts | 295° |
| 2026-04-23 16:22 | 16.04482 | 96.30810 | 35845 ft | 447 kts | 295° |
| 2026-04-23 16:22 | 16.07367 | 96.25066 | 35843 ft | 447 kts | 295° |
| 2026-04-23 16:23 | 16.10245 | 96.19328 | 35842 ft | 447 kts | 295° |
| 2026-04-23 16:23 | 16.13116 | 96.13577 | 35843 ft | 447 kts | 295° |
| 2026-04-23 16:24 | 16.15992 | 96.07831 | 35846 ft | 447 kts | 295° |
| 2026-04-23 16:24 | 16.18853 | 96.02131 | 35847 ft | 447 kts | 295° |
| 2026-04-23 16:25 | 16.21721 | 95.96393 | 35847 ft | 446 kts | 295° |
| 2026-04-23 16:25 | 16.24585 | 95.90648 | 35846 ft | 446 kts | 295° |
| 2026-04-23 16:26 | 16.27428 | 95.84944 | 35849 ft | 446 kts | 295° |
| 2026-04-23 16:26 | 16.30289 | 95.79214 | 35852 ft | 445 kts | 295° |
| 2026-04-23 16:27 | 16.33141 | 95.73488 | 35858 ft | 444 kts | 295° |
| 2026-04-23 16:27 | 16.35965 | 95.67819 | 35858 ft | 443 kts | 295° |
| 2026-04-23 16:28 | 16.38806 | 95.62118 | 35853 ft | 443 kts | 295° |
| 2026-04-23 16:28 | 16.41641 | 95.56418 | 35851 ft | 442 kts | 295° |
| 2026-04-23 16:29 | 16.44463 | 95.50719 | 35849 ft | 442 kts | 295° |
| 2026-04-23 16:29 | 16.47268 | 95.45058 | 35847 ft | 442 kts | 295° |
| 2026-04-23 16:30 | 16.50094 | 95.39358 | 35846 ft | 442 kts | 295° |
| 2026-04-23 16:30 | 16.52914 | 95.33670 | 35846 ft | 442 kts | 295° |
| 2026-04-23 16:31 | 16.55725 | 95.27979 | 35853 ft | 441 kts | 295° |
| 2026-04-23 16:31 | 16.58535 | 95.22288 | 35853 ft | 441 kts | 295° |
| 2026-04-23 16:32 | 16.61329 | 95.16635 | 35850 ft | 441 kts | 295° |
| 2026-04-23 16:32 | 16.64140 | 95.10948 | 35855 ft | 440 kts | 295° |
| 2026-04-23 16:33 | 16.67474 | 95.05588 | 35855 ft | 443 kts | 305° |
| 2026-04-23 16:33 | 16.71270 | 95.00571 | 35856 ft | 442 kts | 305° |
| 2026-04-23 16:34 | 16.75086 | 94.95532 | 35852 ft | 442 kts | 305° |
| 2026-04-23 16:34 | 16.78902 | 94.90496 | 35855 ft | 441 kts | 305° |
| 2026-04-23 16:35 | 16.82688 | 94.85502 | 35860 ft | 441 kts | 305° |
| 2026-04-23 16:35 | 16.86492 | 94.80472 | 35846 ft | 440 kts | 305° |
| 2026-04-23 16:36 | 16.90286 | 94.75448 | 35856 ft | 440 kts | 305° |
| 2026-04-23 16:36 | 16.94075 | 94.70425 | 35850 ft | 440 kts | 305° |
| 2026-04-23 16:37 | 16.97867 | 94.65388 | 35848 ft | 440 kts | 305° |
| 2026-04-23 16:37 | 17.01627 | 94.60397 | 35862 ft | 439 kts | 305° |
| 2026-04-23 16:38 | 17.05411 | 94.55382 | 35862 ft | 438 kts | 305° |
| 2026-04-23 16:38 | 17.09175 | 94.50381 | 35868 ft | 437 kts | 305° |
| 2026-04-23 16:39 | 17.12938 | 94.45375 | 35860 ft | 436 kts | 305° |
| 2026-04-23 16:39 | 17.16659 | 94.40410 | 35859 ft | 436 kts | 305° |
| 2026-04-23 16:40 | 17.20409 | 94.35417 | 35852 ft | 436 kts | 305° |
| 2026-04-23 16:40 | 17.24154 | 94.30426 | 35854 ft | 436 kts | 305° |
| 2026-04-23 16:41 | 17.27902 | 94.25432 | 35852 ft | 436 kts | 305° |
| 2026-04-23 16:41 | 17.31627 | 94.20472 | 35853 ft | 436 kts | 305° |
| 2026-04-23 16:42 | 17.35373 | 94.15479 | 35851 ft | 436 kts | 305° |
| 2026-04-23 16:42 | 17.39112 | 94.10473 | 35858 ft | 435 kts | 305° |
| 2026-04-23 16:43 | 17.42821 | 94.05514 | 35858 ft | 435 kts | 305° |
| 2026-04-23 16:43 | 17.46553 | 94.00525 | 35859 ft | 434 kts | 304° |
| 2026-04-23 16:44 | 17.50270 | 93.95528 | 35854 ft | 434 kts | 304° |
| 2026-04-23 16:44 | 17.53987 | 93.90534 | 35857 ft | 434 kts | 304° |
| 2026-04-23 16:45 | 17.57686 | 93.85578 | 35850 ft | 434 kts | 305° |
| 2026-04-23 16:45 | 17.61406 | 93.80586 | 35866 ft | 434 kts | 304° |
| 2026-04-23 16:46 | 17.65118 | 93.75593 | 35860 ft | 434 kts | 304° |
| 2026-04-23 16:46 | 17.68829 | 93.70600 | 35860 ft | 433 kts | 304° |
| 2026-04-23 16:47 | 17.72515 | 93.65644 | 35868 ft | 433 kts | 304° |
| 2026-04-23 16:47 | 17.76219 | 93.60668 | 35870 ft | 432 kts | 304° |
| 2026-04-23 16:48 | 17.79907 | 93.55695 | 35870 ft | 431 kts | 304° |
| 2026-04-23 16:48 | 17.83587 | 93.50722 | 35863 ft | 430 kts | 304° |
| 2026-04-23 16:49 | 17.87266 | 93.45760 | 35861 ft | 430 kts | 304° |
| 2026-04-23 16:49 | 17.90919 | 93.40829 | 35859 ft | 430 kts | 304° |
| 2026-04-23 16:50 | 17.94593 | 93.35868 | 35854 ft | 430 kts | 304° |
| 2026-04-23 16:50 | 17.98265 | 93.30902 | 35854 ft | 430 kts | 304° |
| 2026-04-23 16:51 | 18.01909 | 93.25962 | 35854 ft | 430 kts | 304° |
| 2026-04-23 16:51 | 18.05577 | 93.20986 | 35853 ft | 430 kts | 304° |
| 2026-04-23 16:52 | 18.09243 | 93.16019 | 35864 ft | 429 kts | 304° |
| 2026-04-23 16:52 | 18.12895 | 93.11063 | 35864 ft | 428 kts | 304° |
| 2026-04-23 16:53 | 18.16519 | 93.06144 | 35861 ft | 427 kts | 304° |
| 2026-04-23 16:53 | 18.20165 | 93.01193 | 35863 ft | 427 kts | 303° |
| 2026-04-23 16:54 | 18.23798 | 92.96251 | 35859 ft | 427 kts | 303° |
| 2026-04-23 16:54 | 18.27432 | 92.91302 | 35856 ft | 427 kts | 303° |
| 2026-04-23 16:55 | 18.31057 | 92.86364 | 35851 ft | 427 kts | 303° |
| 2026-04-23 16:55 | 18.34669 | 92.81447 | 35850 ft | 427 kts | 303° |
| 2026-04-23 16:56 | 18.38296 | 92.76491 | 35850 ft | 427 kts | 303° |
| 2026-04-23 16:56 | 18.41928 | 92.71537 | 35855 ft | 427 kts | 303° |
| 2026-04-23 16:57 | 18.45550 | 92.66586 | 35862 ft | 426 kts | 303° |
| 2026-04-23 16:57 | 18.49158 | 92.61646 | 35863 ft | 425 kts | 303° |
| 2026-04-23 16:58 | 18.52768 | 92.56716 | 35863 ft | 424 kts | 303° |
| 2026-04-23 16:58 | 18.56347 | 92.51821 | 35861 ft | 424 kts | 303° |
| 2026-04-23 16:59 | 18.59950 | 92.46884 | 35860 ft | 424 kts | 303° |
| 2026-04-23 16:59 | 18.63545 | 92.41954 | 35856 ft | 424 kts | 303° |
| 2026-04-23 17:00 | 18.67110 | 92.37059 | 35855 ft | 423 kts | 303° |
| 2026-04-23 17:00 | 18.70699 | 92.32123 | 35852 ft | 423 kts | 303° |
| 2026-04-23 17:01 | 18.74283 | 92.27187 | 35853 ft | 423 kts | 303° |
| 2026-04-23 17:01 | 18.77270 | 92.23084 | 35851 ft | 424 kts | 303° |
| 2026-04-23 17:02 | 18.81435 | 92.17344 | 35850 ft | 424 kts | 303° |
| 2026-04-23 17:02 | 18.85020 | 92.12402 | 35846 ft | 424 kts | 303° |
| 2026-04-23 17:03 | 18.88002 | 92.08293 | 35844 ft | 424 kts | 303° |
| 2026-04-23 17:03 | 18.91590 | 92.03353 | 35844 ft | 424 kts | 303° |
| 2026-04-23 17:04 | 18.95179 | 91.98401 | 35841 ft | 424 kts | 303° |
| 2026-04-23 17:04 | 18.98758 | 91.93448 | 35841 ft | 424 kts | 303° |
| 2026-04-23 17:05 | 19.02337 | 91.88495 | 35837 ft | 424 kts | 303° |
| 2026-04-23 17:05 | 19.05892 | 91.83567 | 35836 ft | 424 kts | 303° |
| 2026-04-23 17:06 | 19.09482 | 91.78606 | 35837 ft | 424 kts | 303° |
| 2026-04-23 17:06 | 19.13055 | 91.73644 | 35849 ft | 424 kts | 303° |
| 2026-04-23 17:07 | 19.16632 | 91.68677 | 35854 ft | 423 kts | 303° |
| 2026-04-23 17:07 | 19.20179 | 91.63761 | 35848 ft | 423 kts | 303° |
| 2026-04-23 17:08 | 19.23747 | 91.58794 | 35846 ft | 422 kts | 303° |
| 2026-04-23 17:08 | 19.27303 | 91.53841 | 35841 ft | 422 kts | 303° |
| 2026-04-23 17:09 | 19.30852 | 91.48888 | 35844 ft | 422 kts | 303° |
| 2026-04-23 17:09 | 19.34381 | 91.43970 | 35841 ft | 422 kts | 303° |
| 2026-04-23 17:10 | 19.37939 | 91.39013 | 35834 ft | 422 kts | 303° |
| 2026-04-23 17:10 | 19.41492 | 91.34056 | 35833 ft | 422 kts | 302° |
| 2026-04-23 17:11 | 19.45044 | 91.29102 | 35834 ft | 422 kts | 303° |
| 2026-04-23 17:11 | 19.48569 | 91.24178 | 35845 ft | 421 kts | 302° |
| 2026-04-23 17:12 | 19.52108 | 91.19216 | 35836 ft | 421 kts | 302° |
| 2026-04-23 17:12 | 19.55639 | 91.14267 | 35843 ft | 420 kts | 302° |
| 2026-04-23 17:13 | 19.59149 | 91.09352 | 35834 ft | 420 kts | 302° |
| 2026-04-23 17:13 | 19.62680 | 91.04392 | 35834 ft | 420 kts | 302° |
| 2026-04-23 17:14 | 19.66202 | 90.99441 | 35829 ft | 420 kts | 302° |
| 2026-04-23 17:14 | 19.69728 | 90.94493 | 35827 ft | 420 kts | 302° |
| 2026-04-23 17:15 | 19.73250 | 90.89544 | 35825 ft | 420 kts | 302° |
| 2026-04-23 17:15 | 19.76766 | 90.84593 | 35825 ft | 420 kts | 302° |
| 2026-04-23 17:16 | 19.80272 | 90.79665 | 35832 ft | 420 kts | 302° |
| 2026-04-23 17:16 | 19.83790 | 90.74712 | 35843 ft | 419 kts | 302° |
| 2026-04-23 17:17 | 19.87294 | 90.69764 | 35838 ft | 419 kts | 302° |
| 2026-04-23 17:17 | 19.90770 | 90.64852 | 35835 ft | 418 kts | 302° |
| 2026-04-23 17:18 | 19.96021 | 90.57445 | 35823 ft | 418 kts | 302° |
| 2026-04-23 17:19 | 19.99520 | 90.52494 | 35825 ft | 418 kts | 302° |
| 2026-04-23 17:19 | 20.02987 | 90.47584 | 35825 ft | 418 kts | 302° |
| 2026-04-23 17:20 | 20.06480 | 90.42637 | 35823 ft | 418 kts | 302° |
| 2026-04-23 17:21 | 20.13454 | 90.32729 | 35823 ft | 417 kts | 301° |
| 2026-04-23 17:21 | 20.18644 | 90.25350 | 35834 ft | 416 kts | 301° |
| 2026-04-23 17:22 | 20.23844 | 90.17962 | 35831 ft | 415 kts | 301° |
| 2026-04-23 17:23 | 20.29024 | 90.10574 | 35832 ft | 414 kts | 301° |
| 2026-04-23 17:24 | 20.34176 | 90.03229 | 35815 ft | 414 kts | 301° |
| 2026-04-23 17:24 | 20.39360 | 89.95839 | 35819 ft | 414 kts | 301° |
| 2026-04-23 17:25 | 20.44492 | 89.88489 | 35822 ft | 413 kts | 301° |
| 2026-04-23 17:26 | 20.51364 | 89.78638 | 35832 ft | 413 kts | 301° |
| 2026-04-23 17:27 | 20.56498 | 89.71279 | 35827 ft | 412 kts | 301° |
| 2026-04-23 17:27 | 20.59908 | 89.66370 | 35828 ft | 411 kts | 301° |
| 2026-04-23 17:28 | 20.63303 | 89.61496 | 35820 ft | 411 kts | 301° |
| 2026-04-23 17:28 | 20.66716 | 89.56590 | 35819 ft | 411 kts | 301° |
| 2026-04-23 17:29 | 20.70127 | 89.51675 | 35814 ft | 411 kts | 301° |
| 2026-04-23 17:30 | 20.74392 | 89.45541 | 35813 ft | 411 kts | 301° |
| 2026-04-23 17:30 | 20.80021 | 89.37429 | 35809 ft | 411 kts | 301° |
| 2026-04-23 17:31 | 20.83422 | 89.32515 | 35826 ft | 410 kts | 301° |
| 2026-04-23 17:31 | 20.86816 | 89.27612 | 35824 ft | 409 kts | 301° |
| 2026-04-23 17:32 | 20.90225 | 89.22773 | 35817 ft | 412 kts | 306° |
| 2026-04-23 17:32 | 20.94837 | 89.18949 | 35811 ft | 432 kts | 326° |
| 2026-04-23 17:33 | 21.00353 | 89.16278 | 35802 ft | 435 kts | 328° |
| 2026-04-23 17:33 | 21.05873 | 89.13611 | 35794 ft | 435 kts | 328° |
| 2026-04-23 17:34 | 21.11362 | 89.10953 | 35794 ft | 435 kts | 327° |
| 2026-04-23 17:35 | 21.19651 | 89.06919 | 35813 ft | 435 kts | 327° |
| 2026-04-23 17:35 | 21.27912 | 89.02901 | 35809 ft | 434 kts | 327° |
| 2026-04-23 17:36 | 21.33382 | 89.00240 | 35804 ft | 434 kts | 327° |
| 2026-04-23 17:36 | 21.38879 | 88.97558 | 35802 ft | 434 kts | 327° |
| 2026-04-23 17:37 | 21.44375 | 88.94871 | 35619 ft | 434 kts | 327° |
| 2026-04-23 17:37 | 21.49874 | 88.92184 | 34760 ft | 435 kts | 327° |
| 2026-04-23 17:38 | 21.52615 | 88.90840 | 33926 ft | 440 kts | 327° |
| 2026-04-23 17:38 | 21.55425 | 88.89463 | 32953 ft | 446 kts | 328° |
| 2026-04-23 17:38 | 21.58265 | 88.88074 | 32046 ft | 449 kts | 328° |
| 2026-04-23 17:38 | 21.61103 | 88.86693 | 31516 ft | 444 kts | 329° |
| 2026-04-23 17:39 | 21.63905 | 88.85334 | 30925 ft | 440 kts | 329° |
| 2026-04-23 17:39 | 21.66687 | 88.83982 | 30329 ft | 437 kts | 329° |
| 2026-04-23 17:39 | 21.69410 | 88.82652 | 29750 ft | 433 kts | 329° |
| 2026-04-23 17:39 | 21.72183 | 88.81296 | 29122 ft | 429 kts | 330° |
| 2026-04-23 17:40 | 21.74853 | 88.79987 | 28574 ft | 425 kts | 330° |
| 2026-04-23 17:40 | 21.77527 | 88.78674 | 28016 ft | 420 kts | 330° |
| 2026-04-23 17:40 | 21.80174 | 88.77373 | 27469 ft | 416 kts | 330° |
| 2026-04-23 17:40 | 21.82801 | 88.76078 | 26925 ft | 413 kts | 331° |
| 2026-04-23 17:41 | 21.85407 | 88.74794 | 26385 ft | 409 kts | 331° |
| 2026-04-23 17:41 | 21.90515 | 88.72284 | 25354 ft | 402 kts | 332° |
| 2026-04-23 17:41 | 21.93048 | 88.71039 | 24856 ft | 399 kts | 332° |
| 2026-04-23 17:42 | 21.98059 | 88.68581 | 23888 ft | 392 kts | 333° |
| 2026-04-23 17:42 | 22.00535 | 88.67365 | 23426 ft | 389 kts | 333° |
| 2026-04-23 17:42 | 22.02993 | 88.66154 | 22913 ft | 386 kts | 334° |
| 2026-04-23 17:43 | 22.05424 | 88.64957 | 22461 ft | 382 kts | 334° |
| 2026-04-23 17:43 | 22.07829 | 88.63772 | 22020 ft | 378 kts | 334° |
| 2026-04-23 17:43 | 22.10213 | 88.62592 | 21576 ft | 375 kts | 334° |
| 2026-04-23 17:43 | 22.12581 | 88.61423 | 21129 ft | 372 kts | 335° |
| 2026-04-23 17:44 | 22.14933 | 88.60264 | 20678 ft | 370 kts | 335° |
| 2026-04-23 17:44 | 22.17274 | 88.59115 | 20227 ft | 369 kts | 336° |
| 2026-04-23 17:44 | 22.21908 | 88.56833 | 19305 ft | 368 kts | 336° |
| 2026-04-23 17:45 | 22.24238 | 88.55682 | 18828 ft | 368 kts | 336° |
| 2026-04-23 17:45 | 22.29043 | 88.53839 | 17866 ft | 365 kts | 353° |
| 2026-04-23 17:45 | 22.31559 | 88.53608 | 17410 ft | 361 kts | 3° |
| 2026-04-23 17:46 | 22.36485 | 88.54072 | 16550 ft | 355 kts | 7° |
| 2026-04-23 17:46 | 22.38939 | 88.54329 | 16115 ft | 353 kts | 7° |
| 2026-04-23 17:46 | 22.41376 | 88.54582 | 15697 ft | 351 kts | 6° |
| 2026-04-23 17:47 | 22.43802 | 88.54833 | 15277 ft | 350 kts | 6° |
| 2026-04-23 17:47 | 22.46223 | 88.55084 | 14855 ft | 348 kts | 6° |
| 2026-04-23 17:47 | 22.51013 | 88.55585 | 14026 ft | 346 kts | 6° |
| 2026-04-23 17:48 | 22.53407 | 88.55837 | 13606 ft | 345 kts | 5° |
| 2026-04-23 17:48 | 22.55796 | 88.56088 | 13147 ft | 343 kts | 5° |
| 2026-04-23 17:48 | 22.58134 | 88.56334 | 12723 ft | 341 kts | 5° |
| 2026-04-23 17:48 | 22.60488 | 88.56582 | 12297 ft | 338 kts | 5° |
| 2026-04-23 17:49 | 22.62822 | 88.56829 | 11870 ft | 336 kts | 4° |
| 2026-04-23 17:49 | 22.65142 | 88.57078 | 11442 ft | 334 kts | 4° |
| 2026-04-23 17:49 | 22.67449 | 88.57328 | 11015 ft | 332 kts | 4° |
| 2026-04-23 17:49 | 22.69745 | 88.57576 | 10595 ft | 330 kts | 4° |
| 2026-04-23 17:50 | 22.72023 | 88.57818 | 10187 ft | 328 kts | 3° |
| 2026-04-23 17:50 | 22.76315 | 88.58244 | 9952 ft | 287 kts | 2° |
| 2026-04-23 17:50 | 22.78241 | 88.58432 | 9844 ft | 270 kts | 1° |
| 2026-04-23 17:51 | 22.80083 | 88.58609 | 9624 ft | 265 kts | 1° |
| 2026-04-23 17:51 | 22.81907 | 88.58783 | 9223 ft | 267 kts | 1° |
| 2026-04-23 17:51 | 22.85615 | 88.59146 | 8485 ft | 268 kts | 4° |
| 2026-04-23 17:52 | 22.86866 | 88.59313 | 8168 ft | 270 kts | 5° |
| 2026-04-23 17:52 | 22.90687 | 88.59919 | 6759 ft | 282 kts | 7° |
| 2026-04-23 17:52 | 22.92614 | 88.60260 | 6319 ft | 273 kts | 8° |
| 2026-04-23 17:53 | 22.96105 | 88.60863 | 6208 ft | 241 kts | 360° |
| 2026-04-23 17:53 | 22.97695 | 88.60465 | 6159 ft | 235 kts | 328° |
| 2026-04-23 17:53 | 22.98851 | 88.59243 | 6113 ft | 235 kts | 304° |
| 2026-04-23 17:54 | 22.99647 | 88.57697 | 6065 ft | 235 kts | 287° |
| 2026-04-23 17:54 | 22.99973 | 88.55953 | 6013 ft | 237 kts | 278° |
| 2026-04-23 17:54 | 23.00385 | 88.52360 | 5444 ft | 243 kts | 279° |
| 2026-04-23 17:55 | 23.02212 | 88.49432 | 4733 ft | 240 kts | 316° |
| 2026-04-23 17:55 | 23.03099 | 88.47922 | 4375 ft | 240 kts | 285° |
| 2026-04-23 17:55 | 23.03130 | 88.46149 | 4017 ft | 242 kts | 254° |
| 2026-04-23 17:56 | 23.02308 | 88.44571 | 3660 ft | 243 kts | 223° |
| 2026-04-23 17:56 | 22.99247 | 88.43491 | 3113 ft | 237 kts | 178° |
| 2026-04-23 17:56 | 22.97639 | 88.43670 | 2966 ft | 228 kts | 161° |
| 2026-04-23 17:57 | 22.96227 | 88.44388 | 2874 ft | 218 kts | 151° |
| 2026-04-23 17:57 | 22.94942 | 88.45188 | 2845 ft | 208 kts | 149° |
| 2026-04-23 17:57 | 22.92499 | 88.46752 | 2845 ft | 204 kts | 149° |
| 2026-04-23 17:58 | 22.91252 | 88.47468 | 2847 ft | 202 kts | 162° |
| 2026-04-23 17:58 | 22.89874 | 88.47645 | 2848 ft | 201 kts | 185° |
| 2026-04-23 17:58 | 22.88478 | 88.47481 | 2852 ft | 201 kts | 186° |
| 2026-04-23 17:58 | 22.87082 | 88.47314 | 2854 ft | 201 kts | 186° |
| 2026-04-23 17:59 | 22.85723 | 88.47154 | 2867 ft | 188 kts | 185° |
| 2026-04-23 17:59 | 22.84477 | 88.47007 | 2858 ft | 172 kts | 185° |
| 2026-04-23 17:59 | 22.83330 | 88.46872 | 2848 ft | 162 kts | 185° |
| 2026-04-23 17:59 | 22.82233 | 88.46744 | 2777 ft | 159 kts | 185° |
| 2026-04-23 18:00 | 22.81142 | 88.46616 | 2627 ft | 156 kts | 185° |
| 2026-04-23 18:00 | 22.80067 | 88.46489 | 2445 ft | 154 kts | 185° |
| 2026-04-23 18:00 | 22.79008 | 88.46365 | 2267 ft | 152 kts | 185° |
| 2026-04-23 18:00 | 22.77955 | 88.46242 | 2084 ft | 152 kts | 185° |
| 2026-04-23 18:01 | 22.76917 | 88.46120 | 1882 ft | 148 kts | 187° |
| 2026-04-23 18:01 | 22.75899 | 88.46001 | 1695 ft | 146 kts | 187° |
| 2026-04-23 18:01 | 22.74895 | 88.45883 | 1508 ft | 145 kts | 187° |
| 2026-04-23 18:01 | 22.73904 | 88.45767 | 1316 ft | 145 kts | 186° |
| 2026-04-23 18:02 | 22.72899 | 88.45649 | 1136 ft | 145 kts | 186° |
| 2026-04-23 18:02 | 22.71893 | 88.45531 | 950 ft | 145 kts | 186° |
| 2026-04-23 18:02 | 22.70893 | 88.45418 | 801 ft | 144 kts | 186° |
| 2026-04-23 18:02 | 22.69885 | 88.45313 | 639 ft | 146 kts | 185° |
| 2026-04-23 18:03 | 22.68876 | 88.45197 | 404 ft | 145 kts | 186° |
| 2026-04-23 18:03 | 22.67886 | 88.45067 | 229 ft | 144 kts | 186° |
| 2026-04-23 18:03 | 22.66897 | 88.44948 | 40 ft | 142 kts | 185° |
| 2026-04-23 18:03 | 22.66044 | 88.44844 | 29 ft | 99 kts | 186° |
| 2026-04-23 18:04 | 22.65530 | 88.44785 | 27 ft | 51 kts | 186° |
| 2026-04-23 18:04 | 22.65212 | 88.44747 | 24 ft | 33 kts | 186° |
| 2026-04-23 18:04 | 22.65003 | 88.44714 | 21 ft | 26 kts | 199° |
| 2026-04-23 18:04 | 22.64878 | 88.44636 | 22 ft | 18 kts | 213° |
| 2026-04-23 18:05 | 22.64771 | 88.44555 | 22 ft | 19 kts | 214° |
| 2026-04-23 18:05 | 22.64670 | 88.44480 | 23 ft | 14 kts | 226° |
| 2026-04-23 18:05 | 22.64662 | 88.44386 | 24 ft | 11 kts | 275° |
| 2026-04-23 18:05 | 22.64671 | 88.44309 | 24 ft | 9 kts | 277° |
| 2026-04-23 18:06 | 22.64679 | 88.44230 | 24 ft | 9 kts | 274° |
| 2026-04-23 18:06 | 22.64651 | 88.44188 | 24 ft | 7 kts | 191° |
| 2026-04-23 18:06 | 22.64598 | 88.44179 | 24 ft | 7 kts | 188° |
| 2026-04-23 18:06 | 22.64571 | 88.44144 | 24 ft | 5 kts | 269° |
| 2026-04-23 18:07 | 22.64571 | 88.44112 | 24 ft | 2 kts | 270° |
| 2026-04-23 18:07 | 22.64571 | 88.44109 | 24 ft | 0 kts | 270° |